createdAt,value
2024-01-05T00:01:59.132Z,99852.41
2024-01-05T00:06:52.460Z,99906.09
2024-01-05T00:16:56.359Z,99931.56
2024-01-05T00:21:46.370Z,99961.81
2024-01-05T00:26:33.802Z,99845.97
2024-01-05T00:31:24.073Z,99944.97
2024-01-05T00:36:12.698Z,99851.63
2024-01-05T00:41:02.470Z,99894.59
2024-01-05T00:45:49.985Z,99798.88
2024-01-05T00:50:40.747Z,99944.75
2024-01-05T00:55:28.516Z,99730.03
2024-01-05T01:00:16.505Z,99875.84
2024-01-05T01:05:06.711Z,99803.88
2024-01-05T01:09:57.012Z,99788.50
2024-01-05T01:14:44.279Z,99865.78
2024-01-05T01:19:37.500Z,99805.13
2024-01-05T01:24:26.713Z,99692.03
2024-01-05T01:29:17.163Z,99793.25
2024-01-05T01:34:07.575Z,99851.47
2024-01-05T01:38:56.140Z,99773.25
2024-01-05T01:43:50.169Z,99755.53
2024-01-05T01:48:42.925Z,99838.34
2024-01-05T01:53:30.455Z,99704.28
2024-01-05T01:58:18.484Z,99724.16
2024-01-05T02:03:06.055Z,99802.94
2024-01-05T02:07:56.411Z,99761.59
2024-01-05T02:12:44.127Z,99714.56
2024-01-05T02:17:37.165Z,99789.31
2024-01-05T02:22:29.050Z,99678.44
2024-01-05T02:27:18.974Z,99733.31
2024-01-05T02:32:07.257Z,99659.88
2024-01-05T02:36:54.507Z,99752.41
2024-01-05T02:41:43.351Z,99665.81
2024-01-05T02:46:33.072Z,99647.75
2024-01-05T02:51:20.313Z,99717.94
2024-01-05T02:56:07.815Z,99729.72
2024-01-05T03:00:55.274Z,99727.41
2024-01-05T03:05:45.453Z,99698.28
2024-01-05T03:10:35.131Z,99671.03
2024-01-05T03:15:22.765Z,99712.09
2024-01-05T03:20:11.026Z,99710.16
2024-01-05T03:25:00.991Z,99684.56
2024-01-05T03:29:50.497Z,99691.44
2024-01-05T03:34:38.883Z,99639.34
2024-01-05T03:39:37.297Z,99607.75
2024-01-05T03:44:30.139Z,99663.34
2024-01-05T03:49:19.109Z,99497.50
2024-01-05T03:54:09.109Z,99538.81
2024-01-05T03:58:59.227Z,99636.53
2024-01-05T04:03:56.994Z,99628.78
2024-01-05T04:08:47.720Z,99442.22
2024-01-05T04:13:37.501Z,99591.63
2024-01-05T04:18:30.778Z,99570.34
2024-01-05T04:23:23.946Z,99594.06
2024-01-05T04:28:13.026Z,99504.31
2024-01-05T04:33:02.048Z,99613.59
2024-01-05T04:37:50.301Z,99484.41
2024-01-05T04:42:43.979Z,99585.63
2024-01-05T04:47:34.023Z,99463.63
2024-01-05T04:52:32.945Z,99576.44
2024-01-05T04:57:20.266Z,99569.53
2024-01-05T05:02:10.214Z,99557.94
2024-01-05T05:07:00.239Z,99479.69
2024-01-05T05:11:47.681Z,99506.53
2024-01-05T05:16:34.991Z,99528.97
2024-01-05T05:21:29.481Z,99489.09
2024-01-05T05:26:17.252Z,99450.69
2024-01-05T05:31:04.873Z,99509.31
2024-01-05T05:35:52.478Z,99545.44
2024-01-05T05:40:42.534Z,99425.09
2024-01-05T05:45:29.898Z,99552.00
2024-01-05T05:50:18.515Z,99397.22
2024-01-05T05:55:06.804Z,99480.72
2024-01-05T06:00:09.072Z,99535.91
2024-01-05T06:04:57.134Z,99444.53
2024-01-05T06:09:44.633Z,99413.59
2024-01-05T06:14:32.607Z,99424.66
2024-01-05T06:19:22.790Z,99455.25
2024-01-05T06:24:12.755Z,99512.13
2024-01-05T06:29:00.211Z,99472.09
2024-01-05T06:33:47.752Z,99372.72
2024-01-05T06:38:39.029Z,99548.94
2024-01-05T06:43:26.546Z,99436.13
2024-01-05T06:48:17.185Z,99389.53
2024-01-05T06:53:07.257Z,99371.91
2024-01-05T06:57:57.335Z,99513.66
2024-01-05T07:02:47.659Z,99479.28
2024-01-05T07:07:35.306Z,99414.69
2024-01-05T07:12:22.850Z,99453.88
2024-01-05T07:17:13.196Z,99419.56
2024-01-05T07:22:00.558Z,99398.53
2024-01-05T07:26:47.838Z,99452.84
2024-01-05T07:31:35.476Z,99402.72
2024-01-05T07:36:25.427Z,99408.31
2024-01-05T07:41:16.246Z,99505.31
2024-01-05T07:46:03.584Z,99493.56
2024-01-05T07:50:50.909Z,99524.34
2024-01-05T07:55:40.945Z,99480.03
2024-01-05T08:00:28.221Z,99389.63
2024-01-05T08:05:15.555Z,99513.56
2024-01-05T08:10:03.588Z,99458.47
2024-01-05T08:14:53.348Z,99503.59
2024-01-05T08:19:40.468Z,99483.13
2024-01-05T08:24:27.871Z,99487.66
2024-01-05T08:29:15.153Z,99501.06
2024-01-05T08:34:05.056Z,99510.28
2024-01-05T08:38:52.516Z,99517.28
2024-01-05T08:43:42.276Z,99433.50
2024-01-05T08:48:29.760Z,99425.28
2024-01-05T08:53:20.833Z,99429.13
2024-01-05T08:58:08.280Z,99518.72
2024-01-05T09:02:57.956Z,99379.41
2024-01-05T09:07:46.730Z,99472.44
2024-01-05T09:12:40.542Z,99486.22
2024-01-05T09:17:28.507Z,99431.28
2024-01-05T09:22:16.466Z,99432.94
2024-01-05T09:27:06.846Z,99374.09
2024-01-05T09:31:57.493Z,99453.25
2024-01-05T09:36:45.288Z,99500.94
2024-01-05T09:41:34.508Z,99471.88
2024-01-05T09:46:23.541Z,99570.72
2024-01-05T09:51:17.122Z,99446.72
2024-01-05T09:56:06.105Z,99482.44
2024-01-05T10:00:57.689Z,99546.19
2024-01-05T10:05:45.227Z,99437.31
2024-01-05T10:10:56.168Z,99424.25
2024-01-05T10:15:53.972Z,99545.06
2024-01-05T10:20:42.469Z,99560.94
2024-01-05T10:25:40.561Z,99565.66
2024-01-05T10:30:31.284Z,99466.81
2024-01-05T10:35:25.108Z,99536.50
2024-01-05T10:40:18.612Z,99557.44
2024-01-05T10:45:09.815Z,99471.94
2024-01-05T10:50:15.481Z,99447.13
2024-01-05T10:55:10.192Z,99465.16
2024-01-05T10:59:59.516Z,99469.28
2024-01-05T11:04:54.901Z,99567.13
2024-01-05T11:09:56.360Z,99442.84
2024-01-05T11:14:59.027Z,99531.41
2024-01-05T11:20:06.091Z,99512.44
2024-01-05T11:25:03.928Z,99579.00
2024-01-05T11:29:55.457Z,99555.88
2024-01-05T11:34:43.146Z,99395.28
2024-01-05T11:39:47.184Z,99421.19
2024-01-05T11:44:37.708Z,99559.38
2024-01-05T11:49:37.323Z,99521.81
2024-01-05T11:54:24.726Z,99557.28
2024-01-05T11:59:15.035Z,99527.44
2024-01-05T12:04:05.422Z,99561.66
2024-01-05T12:08:52.937Z,99590.03
2024-01-05T12:13:40.683Z,99576.59
2024-01-05T12:18:34.538Z,99558.19
2024-01-05T12:23:28.546Z,99591.84
2024-01-05T12:28:16.172Z,99585.06
2024-01-05T12:33:03.942Z,99606.66
2024-01-05T12:37:51.683Z,99560.38
2024-01-05T12:42:41.873Z,99618.97
2024-01-05T12:47:29.722Z,99662.59
2024-01-05T12:52:17.057Z,99613.66
2024-01-05T12:57:04.882Z,99633.03
2024-01-05T13:02:04.997Z,99645.28
2024-01-05T13:06:52.270Z,99621.19
2024-01-05T13:11:39.589Z,99681.63
2024-01-05T13:16:26.703Z,99663.81
2024-01-05T13:21:19.749Z,99684.91
2024-01-05T13:26:07.018Z,99619.81
2024-01-05T13:30:54.409Z,99726.69
2024-01-05T13:35:41.859Z,99702.56
2024-01-05T13:40:31.915Z,99696.13
2024-01-05T13:45:19.453Z,99763.16
2024-01-05T13:50:08.355Z,99685.56
2024-01-05T13:54:55.688Z,99777.22
2024-01-05T13:59:46.620Z,99774.03
2024-01-05T14:04:35.003Z,99800.00
2024-01-05T14:09:23.339Z,99688.88
2024-01-05T14:14:15.059Z,99765.53
2024-01-05T14:19:05.995Z,99729.69
2024-01-05T14:29:10.219Z,99678.00
2024-01-05T14:34:02.320Z,99879.13
2024-01-05T14:38:54.596Z,99871.03
2024-01-05T14:43:46.231Z,99677.38
2024-01-05T14:48:33.913Z,99696.00
2024-01-05T14:53:21.788Z,99777.66
2024-01-05T14:58:17.970Z,99898.03
2024-01-05T15:03:06.391Z,99919.38
2024-01-05T15:07:54.351Z,99735.50
2024-01-05T15:12:43.385Z,99822.50
2024-01-05T15:17:35.836Z,99859.72
2024-01-05T15:22:25.558Z,99902.53
2024-01-05T15:27:13.450Z,99840.34
2024-01-05T15:32:00.882Z,99936.13
2024-01-05T15:36:53.471Z,99928.97
2024-01-05T15:41:41.188Z,99890.84
2024-01-05T15:46:30.028Z,99957.44
2024-01-05T15:51:17.259Z,99988.78
2024-01-05T15:56:07.525Z,99920.59
2024-01-05T16:00:55.008Z,99941.72
2024-01-05T16:05:42.486Z,99902.22
2024-01-05T16:10:30.045Z,99904.88
2024-01-05T16:15:22.055Z,100010.03
2024-01-05T16:20:10.945Z,99960.13
2024-01-05T16:25:01.678Z,99935.34
2024-01-05T16:29:49.212Z,99899.97
2024-01-05T16:35:11.153Z,100074.34
2024-01-05T16:40:00.287Z,99867.66
2024-01-05T16:44:47.760Z,100002.09
2024-01-05T16:49:37.797Z,100032.09
2024-01-05T16:54:30.179Z,100033.94
2024-01-05T16:59:17.681Z,99969.06
2024-01-05T17:04:08.551Z,100029.16
2024-01-05T17:08:57.688Z,99991.72
2024-01-05T17:13:47.979Z,100130.16
2024-01-05T17:18:38.491Z,100034.94
2024-01-05T17:23:26.122Z,100051.22
2024-01-05T17:28:42.014Z,100019.31
2024-01-05T17:33:35.978Z,100099.25
2024-01-05T17:38:29.672Z,99966.31
2024-01-05T17:43:17.771Z,100041.88
2024-01-05T19:46:05.055Z,100291.56
2024-01-05T19:50:53.286Z,100230.31
2024-01-05T19:55:44.828Z,100290.25
2024-01-05T20:00:32.422Z,100279.06
2024-01-05T20:05:25.234Z,100313.63
2024-01-05T20:10:12.673Z,100235.00
2024-01-05T20:15:00.241Z,100231.94
2024-01-05T20:19:48.022Z,100327.91
2024-01-05T20:24:37.988Z,100332.72
2024-01-05T20:29:25.351Z,100377.59
2024-01-05T20:34:13.000Z,100286.47
2024-01-05T20:39:01.131Z,100366.06
2024-01-05T20:43:51.366Z,100342.38
2024-01-05T20:48:42.250Z,100353.69
2024-01-05T20:53:29.665Z,100377.59
2024-01-05T20:58:18.276Z,100325.81
2024-01-05T21:03:11.206Z,100358.00
2024-01-05T21:08:01.417Z,100399.78
2024-01-05T21:12:49.099Z,100299.72
2024-01-05T21:17:36.980Z,100425.66
2024-01-05T21:22:29.495Z,100315.16
2024-01-05T21:27:17.533Z,100322.09
2024-01-05T21:32:05.512Z,100368.88
2024-01-05T21:36:52.899Z,100336.22
2024-01-05T21:41:43.903Z,100376.25
2024-01-05T21:46:31.442Z,100412.56
2024-01-05T21:51:18.794Z,100351.88
2024-01-05T21:56:07.238Z,100452.38
2024-01-05T22:00:57.299Z,100317.66
2024-01-05T22:05:44.586Z,100463.72
2024-01-05T22:10:33.137Z,100435.84
2024-01-05T22:15:20.560Z,100489.22
2024-01-05T22:20:12.006Z,100331.38
2024-01-05T22:25:10.071Z,100434.72
2024-01-05T22:29:57.961Z,100508.84
2024-01-05T22:34:46.022Z,100439.50
2024-01-05T22:39:36.313Z,100487.59
2024-01-05T22:44:23.743Z,100505.28
2024-01-05T22:49:11.096Z,100503.94
2024-01-05T22:54:00.043Z,100524.56
2024-01-05T22:58:50.151Z,100474.09
2024-01-05T23:03:37.750Z,100470.22
2024-01-05T23:08:25.369Z,100559.66
2024-01-05T23:13:14.485Z,100497.69
2024-01-05T23:18:05.358Z,100574.94
2024-01-05T23:22:53.115Z,100451.97
2024-01-05T23:27:40.582Z,100496.09
2024-01-05T23:32:28.054Z,100600.47
2024-01-05T23:37:18.079Z,100574.34
2024-01-05T23:42:07.486Z,100474.06
2024-01-05T23:46:58.647Z,100497.72
2024-01-05T23:51:46.233Z,100568.25
2024-01-05T23:56:36.570Z,100474.59
